Time;durP1;ratioP1;P1;durP2;ratioP2;P2;SDS_P1;SDS_P2;PMS_P1;PMS_P2;Temp;Humidity;BMP_temperature;BMP_pressure;BME280_temperature;BME280_humidity;BME280_pressure;Samples;Min_cycle;Max_cycle;Signal;HPM_P1;HPM_P2
2023/02/27 00:01:45;;;;;;;0.77;0.50;;;5.60;99.90;;;;;;4951396;28;20198;-66
2023/02/27 00:04:12;;;;;;;0.97;0.50;;;5.60;99.90;;;;;;4951019;28;20216;-66
2023/02/27 00:06:40;;;;;;;1.33;0.50;;;5.60;99.90;;;;;;4952429;28;20209;-66
2023/02/27 00:09:07;;;;;;;0.43;0.43;;;5.50;99.90;;;;;;4950639;28;20199;-67
2023/02/27 00:11:37;;;;;;;0.43;0.43;;;5.50;99.90;;;;;;4949367;28;20201;-67
2023/02/27 00:14:04;;;;;;;2.10;0.60;;;5.40;99.90;;;;;;4933276;29;20688;-66
2023/02/27 00:16:33;;;;;;;2.43;0.77;;;5.40;99.90;;;;;;4950609;28;20185;-67
2023/02/27 00:19:03;;;;;;;0.83;0.60;;;5.30;99.90;;;;;;4949301;29;20219;-67
2023/02/27 00:21:31;;;;;;;0.50;0.50;;;5.30;99.90;;;;;;4948636;29;20193;-66
2023/02/27 00:23:58;;;;;;;0.60;0.50;;;5.30;99.90;;;;;;4948200;28;20636;-66
2023/02/27 00:26:25;;;;;;;0.37;0.30;;;5.30;99.90;;;;;;4949613;28;20228;-66
2023/02/27 00:28:52;;;;;;;0.53;0.30;;;5.40;99.90;;;;;;4949149;29;20265;-67
2023/02/27 00:31:19;;;;;;;0.37;0.37;;;5.40;99.90;;;;;;4947570;29;20189;-66
2023/02/27 00:33:48;;;;;;;0.40;0.40;;;5.40;99.90;;;;;;4948775;28;20545;-65
2023/02/27 00:36:15;;;;;;;0.70;0.40;;;5.40;99.90;;;;;;4950318;29;20545;-65
2023/02/27 00:38:42;;;;;;;0.60;0.40;;;5.60;99.90;;;;;;4948408;29;20210;-65
2023/02/27 00:41:10;;;;;;;1.27;0.50;;;5.50;99.90;;;;;;4948056;28;20581;-65
2023/02/27 00:43:37;;;;;;;0.50;0.30;;;5.40;99.90;;;;;;4948736;28;20308;-66
2023/02/27 00:46:04;;;;;;;0.50;0.50;;;5.40;99.90;;;;;;4950703;29;20211;-65
2023/02/27 00:48:32;;;;;;;0.70;0.53;;;5.40;99.90;;;;;;4949156;28;20306;-65
2023/02/27 00:51:00;;;;;;;0.50;0.50;;;5.40;99.90;;;;;;4947474;29;20221;-66
2023/02/27 00:53:27;;;;;;;0.30;0.30;;;5.40;99.90;;;;;;4964324;28;20208;-66
2023/02/27 00:55:54;;;;;;;0.30;0.30;;;5.50;99.90;;;;;;4950064;28;20264;-67
2023/02/27 00:58:22;;;;;;;0.50;0.50;;;5.50;99.90;;;;;;4952710;29;20206;-66
2023/02/27 01:00:49;;;;;;;1.00;0.40;;;5.50;99.90;;;;;;4952130;29;20210;-66
2023/02/27 01:03:16;;;;;;;0.40;0.40;;;5.50;99.90;;;;;;4952894;29;20198;-66
2023/02/27 01:05:43;;;;;;;0.40;0.40;;;5.50;99.90;;;;;;4954164;29;20225;-67
2023/02/27 01:08:11;;;;;;;0.40;0.40;;;5.50;99.90;;;;;;4953752;28;20229;-67
2023/02/27 01:10:39;;;;;;;0.50;0.50;;;5.50;99.90;;;;;;4955560;28;20646;-66
2023/02/27 01:13:07;;;;;;;0.83;0.67;;;5.50;99.90;;;;;;4954470;28;20748;-65
2023/02/27 01:15:34;;;;;;;1.03;0.50;;;5.50;99.90;;;;;;4955355;28;20699;-66
2023/02/27 01:18:01;;;;;;;1.43;0.70;;;5.50;99.90;;;;;;4954531;28;20214;-66
2023/02/27 01:20:28;;;;;;;0.40;0.40;;;5.50;99.90;;;;;;4968842;28;20217;-67
2023/02/27 01:22:56;;;;;;;0.30;0.30;;;5.50;99.90;;;;;;4954428;28;20705;-67
2023/02/27 01:25:24;;;;;;;0.30;0.30;;;5.50;99.90;;;;;;4954610;28;20202;-66
2023/02/27 01:27:52;;;;;;;1.17;0.40;;;5.50;99.90;;;;;;4954655;28;20222;-66
2023/02/27 01:30:19;;;;;;;0.23;0.23;;;5.50;99.90;;;;;;4953598;28;20691;-66
2023/02/27 01:32:46;;;;;;;0.30;0.30;;;5.50;99.90;;;;;;4967236;28;20304;-66
2023/02/27 01:35:13;;;;;;;0.30;0.30;;;5.50;99.90;;;;;;4968847;28;20202;-65
2023/02/27 01:37:41;;;;;;;0.40;0.40;;;5.50;99.90;;;;;;4954299;28;20232;-67
2023/02/27 01:40:10;;;;;;;0.30;0.30;;;5.50;99.90;;;;;;4948464;28;20289;-67
2023/02/27 01:42:39;;;;;;;3.33;0.53;;;5.50;99.90;;;;;;4950483;28;20229;-67
2023/02/27 01:45:30;;;;;;;0.37;0.37;;;5.50;99.90;;;;;;4952571;28;20190;-67
2023/02/27 01:48:03;;;;;;;1.40;0.50;;;5.50;99.90;;;;;;4949818;29;20356;-67
2023/02/27 01:50:35;;;;;;;0.73;0.50;;;5.50;99.90;;;;;;4951052;28;20220;-67
2023/02/27 01:53:03;;;;;;;0.50;0.40;;;5.50;99.90;;;;;;4953335;28;20195;-66
2023/02/27 01:55:33;;;;;;;0.37;0.33;;;5.50;99.90;;;;;;4950835;28;20202;-67
2023/02/27 01:58:02;;;;;;;0.53;0.53;;;5.50;99.90;;;;;;4953070;28;20546;-67
2023/02/27 02:03:24;;;;;;;0.50;0.50;;;5.50;99.90;;;;;;5101116;23;20281;-61
2023/02/27 02:05:56;;;;;;;0.37;0.37;;;5.50;99.90;;;;;;4938665;29;20233;-61
2023/02/27 02:08:26;;;;;;;0.53;0.50;;;5.50;99.90;;;;;;4939769;28;20565;-61
2023/02/27 02:10:55;;;;;;;0.77;0.40;;;5.50;99.90;;;;;;4950839;29;20194;-61
2023/02/27 02:13:24;;;;;;;0.40;0.40;;;5.60;99.90;;;;;;4950788;29;20253;-61
2023/02/27 02:16:04;;;;;;;2.10;0.60;;;5.60;99.90;;;;;;4952206;29;20189;-60
2023/02/27 02:18:48;;;;;;;0.60;0.60;;;5.50;99.90;;;;;;4950953;29;20247;-61
2023/02/27 02:22:00;;;;;;;0.60;0.60;;;5.60;99.90;;;;;;4950960;29;20519;-61
2023/02/27 02:25:12;;;;;;;0.50;0.50;;;5.50;99.90;;;;;;4949098;29;20286;-61
2023/02/27 02:27:54;;;;;;;0.70;0.70;;;5.50;99.90;;;;;;4950422;29;20212;-61
2023/02/27 02:30:48;;;;;;;0.47;0.47;;;5.50;99.90;;;;;;4952428;29;20193;-61
2023/02/27 02:33:50;;;;;;;0.73;0.50;;;5.50;99.90;;;;;;4951414;28;20681;-61
2023/02/27 02:36:56;;;;;;;1.70;0.50;;;5.50;99.90;;;;;;4935286;29;20715;-61
2023/02/27 02:39:56;;;;;;;1.23;0.53;;;5.50;99.90;;;;;;4951964;28;20206;-61
2023/02/27 02:42:26;;;;;;;0.47;0.47;;;5.50;99.90;;;;;;4950485;29;20209;-60
2023/02/27 02:45:02;;;;;;;1.47;0.60;;;5.50;99.90;;;;;;4934198;29;20233;-60
2023/02/27 02:47:35;;;;;;;0.50;0.50;;;5.50;99.90;;;;;;4950741;29;20209;-61
2023/02/27 02:50:09;;;;;;;0.40;0.40;;;5.50;99.90;;;;;;4952171;29;20208;-60
2023/02/27 02:52:45;;;;;;;0.60;0.50;;;5.50;99.90;;;;;;4937256;29;20284;-60
2023/02/27 02:55:21;;;;;;;0.53;0.37;;;5.50;99.90;;;;;;4951106;29;20189;-60
2023/02/27 02:57:52;;;;;;;0.40;0.40;;;5.50;99.90;;;;;;4933556;29;20222;-60
2023/02/27 03:00:22;;;;;;;0.57;0.50;;;5.50;99.90;;;;;;4950812;28;20210;-60
2023/02/27 03:02:54;;;;;;;0.77;0.53;;;5.50;99.90;;;;;;4949763;29;20241;-60
2023/02/27 03:05:26;;;;;;;0.50;0.50;;;5.50;99.90;;;;;;4933893;29;20206;-61
2023/02/27 03:07:58;;;;;;;0.50;0.50;;;5.50;99.90;;;;;;4951826;29;20209;-61
2023/02/27 03:10:33;;;;;;;0.77;0.67;;;5.50;99.90;;;;;;4934179;29;20212;-60
2023/02/27 03:13:08;;;;;;;1.80;0.50;;;5.50;99.90;;;;;;4935519;29;20189;-60
2023/02/27 03:15:44;;;;;;;0.60;0.53;;;5.50;99.90;;;;;;4934881;29;20665;-60
2023/02/27 03:18:19;;;;;;;0.50;0.50;;;5.40;99.90;;;;;;4932990;29;20197;-60
2023/02/27 03:20:55;;;;;;;0.40;0.40;;;5.40;99.90;;;;;;4952179;29;20193;-60
2023/02/27 03:23:27;;;;;;;0.67;0.57;;;5.40;99.90;;;;;;4951790;29;20698;-60
2023/02/27 03:25:57;;;;;;;2.67;0.70;;;5.50;99.90;;;;;;4932554;29;20699;-60
2023/02/27 03:28:29;;;;;;;0.90;0.60;;;5.50;99.90;;;;;;4932917;29;20751;-60
2023/02/27 03:31:04;;;;;;;1.00;0.50;;;5.50;99.90;;;;;;4934925;29;20205;-60
2023/02/27 03:33:36;;;;;;;0.80;0.60;;;5.50;99.90;;;;;;4947988;29;20192;-61
2023/02/27 03:36:08;;;;;;;0.87;0.73;;;5.50;99.90;;;;;;4932379;29;20197;-61
2023/02/27 03:38:40;;;;;;;1.37;0.60;;;5.50;99.90;;;;;;4933640;29;20667;-61
2023/02/27 03:41:15;;;;;;;0.77;0.43;;;5.50;99.90;;;;;;4933758;29;20197;-61
2023/02/27 03:43:56;;;;;;;0.93;0.50;;;5.50;99.90;;;;;;4933385;29;20407;-61
2023/02/27 03:46:26;;;;;;;0.60;0.60;;;5.50;99.90;;;;;;4933441;29;20764;-60
2023/02/27 03:48:53;;;;;;;0.60;0.60;;;5.50;99.90;;;;;;4931058;29;20193;-61
2023/02/27 03:51:22;;;;;;;1.90;0.50;;;5.50;99.90;;;;;;4951623;29;20261;-61
2023/02/27 03:54:00;;;;;;;0.90;0.73;;;5.50;99.90;;;;;;4948604;29;20201;-60
2023/02/27 03:56:34;;;;;;;0.93;0.80;;;5.50;99.90;;;;;;4951264;29;20275;-60
2023/02/27 03:59:02;;;;;;;0.50;0.50;;;5.50;99.90;;;;;;4931572;29;20188;-60
2023/02/27 04:01:30;;;;;;;0.40;0.40;;;5.50;99.90;;;;;;4935651;29;20669;-60
2023/02/27 04:04:00;;;;;;;1.03;0.60;;;5.60;99.90;;;;;;4937396;28;20237;-60
2023/02/27 04:10:15;;;;;;;0.93;0.60;;;5.60;99.90;;;;;;4949955;29;20655;-60
2023/02/27 04:13:02;;;;;;;1.00;0.70;;;5.60;99.90;;;;;;4943691;29;20245;-60
2023/02/27 04:15:38;;;;;;;0.60;0.60;;;5.60;99.90;;;;;;4950152;29;20209;-61
2023/02/27 04:18:18;;;;;;;0.50;0.50;;;5.60;99.90;;;;;;4948902;29;20193;-60
2023/02/27 04:20:49;;;;;;;0.63;0.60;;;5.60;99.90;;;;;;4949285;29;20194;-60
2023/02/27 04:23:22;;;;;;;0.40;0.40;;;5.70;99.90;;;;;;4948970;29;20193;-60
2023/02/27 04:26:06;;;;;;;0.67;0.67;;;5.70;99.90;;;;;;4936456;29;20292;-61
2023/02/27 04:28:44;;;;;;;0.53;0.53;;;5.70;99.90;;;;;;4949643;29;20185;-60
2023/02/27 04:31:18;;;;;;;0.80;0.70;;;5.70;99.90;;;;;;4952180;28;20225;-60
2023/02/27 04:33:52;;;;;;;1.50;0.70;;;5.70;99.90;;;;;;4952781;29;20198;-61
2023/02/27 04:36:27;;;;;;;1.60;0.60;;;5.70;99.90;;;;;;4953183;29;20614;-61
2023/02/27 04:39:03;;;;;;;0.60;0.60;;;5.70;99.90;;;;;;4952317;29;21029;-61
2023/02/27 04:41:36;;;;;;;0.90;0.90;;;5.70;99.90;;;;;;4954669;29;20573;-61
2023/02/27 04:44:07;;;;;;;0.60;0.60;;;5.60;99.90;;;;;;4953987;29;20223;-60
2023/02/27 04:46:38;;;;;;;0.97;0.87;;;5.70;99.90;;;;;;4954461;29;20202;-61
2023/02/27 04:49:11;;;;;;;0.67;0.60;;;5.60;99.90;;;;;;4936222;29;20216;-61
2023/02/27 04:51:44;;;;;;;0.80;0.60;;;5.60;99.90;;;;;;4954384;29;20279;-61
2023/02/27 04:54:14;;;;;;;0.90;0.77;;;5.70;99.90;;;;;;4954096;29;20204;-60
2023/02/27 04:56:45;;;;;;;2.13;0.67;;;5.70;99.90;;;;;;4954111;29;20231;-61
2023/02/27 04:59:18;;;;;;;1.33;0.70;;;5.70;99.80;;;;;;4954085;29;20204;-61
2023/02/27 05:01:51;;;;;;;1.47;0.70;;;5.70;99.70;;;;;;4953967;29;20205;-60
2023/02/27 05:04:21;;;;;;;0.67;0.63;;;5.80;99.70;;;;;;4949187;29;20194;-61
2023/02/27 05:06:51;;;;;;;3.63;0.80;;;5.80;99.60;;;;;;4938247;28;20214;-61
2023/02/27 05:09:26;;;;;;;1.30;0.77;;;5.80;99.50;;;;;;4935799;29;20281;-61
2023/02/27 05:12:00;;;;;;;1.07;0.77;;;5.80;99.50;;;;;;4952852;29;20199;-61
2023/02/27 05:14:34;;;;;;;0.87;0.70;;;5.80;99.40;;;;;;4950138;29;20286;-59
2023/02/27 05:17:06;;;;;;;1.37;0.70;;;5.80;99.70;;;;;;4953129;29;20220;-61
2023/02/27 05:19:37;;;;;;;0.73;0.73;;;5.80;99.30;;;;;;4950180;29;20186;-61
2023/02/27 05:22:15;;;;;;;0.67;0.67;;;5.80;99.30;;;;;;4952772;29;20191;-60
2023/02/27 05:24:49;;;;;;;1.20;0.87;;;5.80;99.20;;;;;;4953487;29;20206;-59
2023/02/27 05:27:22;;;;;;;1.90;0.80;;;5.80;99.20;;;;;;4953762;29;20209;-60
2023/02/27 05:29:52;;;;;;;1.37;0.80;;;5.80;99.00;;;;;;4951998;29;20197;-61
2023/02/27 05:32:32;;;;;;;1.33;0.70;;;5.80;98.90;;;;;;4952817;29;20260;-60
2023/02/27 05:35:13;;;;;;;0.83;0.60;;;5.80;98.80;;;;;;4953534;29;20602;-60
2023/02/27 05:37:46;;;;;;;1.10;0.80;;;5.80;98.50;;;;;;4935658;29;20215;-60
2023/02/27 05:40:18;;;;;;;1.10;1.00;;;5.70;98.40;;;;;;4953322;29;20626;-60
2023/02/27 05:42:51;;;;;;;1.23;0.87;;;5.70;98.30;;;;;;4950946;28;20202;-60
2023/02/27 05:45:22;;;;;;;0.50;0.50;;;5.70;98.20;;;;;;4936065;29;20208;-60
2023/02/27 05:47:55;;;;;;;0.70;0.70;;;5.70;98.20;;;;;;4951915;29;20218;-60
2023/02/27 05:50:26;;;;;;;0.43;0.40;;;5.70;98.10;;;;;;4953568;29;20255;-59
2023/02/27 05:52:57;;;;;;;0.60;0.60;;;5.70;97.90;;;;;;4952395;29;20191;-61
2023/02/27 05:55:30;;;;;;;0.50;0.50;;;5.70;97.70;;;;;;4952292;29;20191;-61
2023/02/27 05:58:01;;;;;;;2.97;1.20;;;5.70;97.70;;;;;;4953312;29;20226;-60
2023/02/27 06:00:37;;;;;;;1.37;0.80;;;5.70;97.30;;;;;;4953857;29;20201;-60
2023/02/27 06:03:04;;;;;;;0.80;0.80;;;5.70;97.20;;;;;;4946148;28;20289;-61
2023/02/27 06:05:32;;;;;;;0.57;0.57;;;5.80;97.00;;;;;;4935335;29;20292;-61
2023/02/27 06:07:59;;;;;;;1.30;0.70;;;5.80;96.90;;;;;;4952891;29;20219;-60
2023/02/27 06:10:26;;;;;;;1.23;0.80;;;5.80;96.80;;;;;;4951876;28;20629;-60
2023/02/27 06:12:53;;;;;;;0.50;0.50;;;5.80;96.70;;;;;;4951423;29;20216;-61
2023/02/27 06:15:21;;;;;;;0.60;0.60;;;5.80;96.70;;;;;;4952353;29;20205;-60
2023/02/27 06:17:50;;;;;;;0.50;0.50;;;6.00;96.70;;;;;;4948446;29;20580;-61
2023/02/27 06:20:20;;;;;;;0.53;0.53;;;5.90;96.50;;;;;;4952923;29;20198;-60
2023/02/27 06:22:47;;;;;;;0.40;0.40;;;5.90;96.50;;;;;;4950073;29;20262;-60
2023/02/27 06:25:14;;;;;;;0.60;0.60;;;5.90;96.40;;;;;;4953513;28;20191;-60
2023/02/27 06:27:41;;;;;;;0.70;0.70;;;5.90;96.40;;;;;;4951332;29;20246;-61
2023/02/27 06:30:10;;;;;;;2.20;1.17;;;6.00;96.50;;;;;;4952730;29;20191;-60
2023/02/27 06:32:37;;;;;;;1.10;1.00;;;6.00;96.50;;;;;;4950463;29;20206;-60
2023/02/27 06:35:06;;;;;;;1.97;1.20;;;5.90;96.50;;;;;;4952624;29;20208;-60
2023/02/27 06:37:33;;;;;;;4.33;1.93;;;6.10;96.70;;;;;;4951799;29;20203;-60
2023/02/27 06:40:01;;;;;;;3.73;2.20;;;6.10;96.70;;;;;;4951884;29;20204;-60
2023/02/27 06:42:28;;;;;;;3.07;2.00;;;6.10;96.80;;;;;;4950478;29;20277;-61
2023/02/27 06:44:55;;;;;;;2.67;1.83;;;6.20;96.90;;;;;;4951590;29;20205;-60
2023/02/27 06:47:22;;;;;;;3.37;2.10;;;6.20;97.00;;;;;;4938483;28;20278;-61
2023/02/27 06:49:49;;;;;;;2.37;1.77;;;6.20;97.00;;;;;;4946959;28;20207;-61
2023/02/27 06:52:18;;;;;;;4.50;2.83;;;6.20;97.00;;;;;;4930646;29;20251;-60
2023/02/27 06:54:45;;;;;;;3.60;2.17;;;6.20;97.10;;;;;;4948162;28;20204;-60
2023/02/27 06:57:12;;;;;;;3.80;1.57;;;6.20;97.00;;;;;;4932110;29;21265;-61
2023/02/27 06:59:39;;;;;;;1.30;1.17;;;6.20;96.70;;;;;;4948483;29;20195;-61
2023/02/27 07:02:07;;;;;;;1.13;1.00;;;6.10;96.40;;;;;;4949362;28;20283;-61
2023/02/27 07:04:34;;;;;;;1.00;0.90;;;6.10;96.10;;;;;;4947939;29;20195;-60
2023/02/27 07:07:01;;;;;;;0.73;0.70;;;6.10;95.90;;;;;;4947028;29;20715;-60
2023/02/27 07:09:30;;;;;;;0.83;0.63;;;6.10;95.80;;;;;;4945524;29;20196;-60
2023/02/27 07:11:57;;;;;;;1.23;0.70;;;6.20;95.60;;;;;;4943777;29;20210;-60
2023/02/27 07:14:24;;;;;;;1.57;0.60;;;6.20;95.50;;;;;;4937487;29;20286;-62
2023/02/27 07:16:53;;;;;;;0.97;0.60;;;6.20;95.20;;;;;;4946328;29;20208;-61
2023/02/27 07:19:21;;;;;;;0.80;0.63;;;6.20;95.00;;;;;;4947637;29;20646;-61
2023/02/27 07:21:48;;;;;;;0.80;0.50;;;6.20;94.90;;;;;;4948763;29;20672;-61
2023/02/27 07:24:15;;;;;;;1.33;0.80;;;6.30;94.80;;;;;;4941132;29;20266;-60
2023/02/27 07:26:44;;;;;;;0.60;0.60;;;6.30;94.70;;;;;;4947781;29;20287;-61
2023/02/27 07:29:14;;;;;;;0.50;0.50;;;6.30;94.40;;;;;;4948158;29;20207;-61
2023/02/27 07:31:45;;;;;;;0.70;0.50;;;6.30;94.30;;;;;;4920694;29;20207;-61
2023/02/27 07:34:14;;;;;;;0.43;0.43;;;6.30;94.40;;;;;;4944971;29;20418;-62
2023/02/27 07:36:42;;;;;;;0.40;0.40;;;6.40;94.00;;;;;;4947804;28;20191;-60
2023/02/27 07:39:09;;;;;;;0.50;0.50;;;6.40;93.80;;;;;;4929405;29;20668;-61
2023/02/27 07:41:36;;;;;;;1.37;0.70;;;6.30;93.60;;;;;;4948442;29;20210;-61
2023/02/27 07:44:07;;;;;;;0.50;0.50;;;6.40;93.20;;;;;;4933085;29;20210;-61
2023/02/27 07:46:34;;;;;;;0.50;0.50;;;6.40;93.10;;;;;;4947733;29;20204;-62
2023/02/27 07:49:02;;;;;;;0.50;0.50;;;6.50;93.10;;;;;;4945865;29;20211;-60
2023/02/27 07:51:29;;;;;;;0.40;0.40;;;6.50;92.90;;;;;;4948308;29;20195;-62
2023/02/27 07:53:57;;;;;;;0.57;0.50;;;5.20;92.20;;;;;;4931887;29;21079;-61
2023/02/27 07:56:25;;;;;;;0.50;0.50;;;6.60;92.80;;;;;;4946589;29;20207;-60
2023/02/27 07:58:52;;;;;;;4.07;0.60;;;6.70;92.70;;;;;;4947565;29;20250;-60
2023/02/27 08:01:21;;;;;;;0.60;0.50;;;6.90;92.60;;;;;;4932553;29;20203;-61
2023/02/27 08:03:48;;;;;;;0.43;0.40;;;7.00;92.10;;;;;;4944204;28;20254;-61
2023/02/27 08:06:15;;;;;;;1.70;0.60;;;7.00;91.80;;;;;;4946930;29;20296;-61
2023/02/27 08:08:42;;;;;;;0.40;0.40;;;7.00;91.00;;;;;;4945371;29;20273;-60
2023/02/27 08:11:10;;;;;;;1.70;0.70;;;7.00;91.00;;;;;;4945593;29;20201;-60
2023/02/27 08:13:37;;;;;;;0.40;0.40;;;7.10;90.90;;;;;;4948660;29;20619;-60
2023/02/27 08:16:04;;;;;;;2.20;0.60;;;7.00;90.80;;;;;;4946180;29;20275;-61
2023/02/27 08:18:34;;;;;;;0.43;0.43;;;7.10;90.70;;;;;;4945592;29;20197;-60
2023/02/27 08:21:03;;;;;;;0.57;0.50;;;7.10;90.50;;;;;;4950095;29;20230;-60
2023/02/27 08:23:31;;;;;;;4.70;0.60;;;7.20;90.20;;;;;;4948509;28;20237;-60
2023/02/27 08:25:58;;;;;;;0.70;0.70;;;7.40;89.60;;;;;;4948646;28;20343;-60
2023/02/27 08:28:26;;;;;;;1.20;0.50;;;7.40;87.80;;;;;;4947104;29;20290;-60
2023/02/27 08:30:53;;;;;;;0.40;0.40;;;7.40;88.10;;;;;;4945947;29;20252;-60
2023/02/27 08:33:21;;;;;;;0.67;0.67;;;7.50;87.50;;;;;;4947413;29;20197;-60
2023/02/27 08:35:49;;;;;;;2.10;0.70;;;7.50;87.10;;;;;;4949106;29;20231;-60
2023/02/27 08:38:16;;;;;;;1.60;0.60;;;7.50;87.10;;;;;;4943640;28;20189;-61
2023/02/27 08:40:43;;;;;;;0.60;0.60;;;7.60;87.40;;;;;;4947524;29;20204;-60
2023/02/27 08:43:10;;;;;;;0.80;0.70;;;7.80;87.40;;;;;;4948264;29;20197;-60
2023/02/27 08:45:38;;;;;;;0.67;0.60;;;7.80;87.40;;;;;;4943428;29;20201;-60
2023/02/27 08:48:05;;;;;;;0.50;0.50;;;7.80;85.10;;;;;;4947658;29;20236;-60
2023/02/27 08:50:32;;;;;;;0.53;0.50;;;7.70;85.20;;;;;;4948712;29;20202;-61
2023/02/27 08:53:01;;;;;;;0.60;0.60;;;7.70;85.30;;;;;;4946393;29;20617;-60
2023/02/27 08:55:28;;;;;;;0.83;0.83;;;7.80;85.30;;;;;;4947419;29;20201;-60
2023/02/27 08:57:55;;;;;;;0.50;0.50;;;7.80;85.10;;;;;;4948632;29;20294;-60
2023/02/27 09:00:23;;;;;;;0.70;0.70;;;7.70;84.50;;;;;;4945142;29;20200;-60
2023/02/27 09:02:51;;;;;;;1.17;0.50;;;7.70;84.40;;;;;;4946418;29;20256;-60
2023/02/27 09:05:18;;;;;;;0.53;0.53;;;7.70;84.40;;;;;;4947640;28;20198;-61
2023/02/27 09:07:45;;;;;;;0.50;0.50;;;7.70;84.10;;;;;;4946184;29;20286;-61
2023/02/27 09:10:14;;;;;;;0.73;0.50;;;7.70;83.90;;;;;;4948119;29;20249;-61
2023/02/27 09:12:44;;;;;;;0.60;0.60;;;7.60;82.40;;;;;;4946168;29;20646;-61
2023/02/27 09:15:12;;;;;;;1.30;0.70;;;7.60;82.20;;;;;;4944686;28;20225;-61
2023/02/27 09:17:39;;;;;;;1.43;0.77;;;7.60;81.60;;;;;;4947135;29;20613;-61
2023/02/27 09:20:08;;;;;;;0.67;0.67;;;7.60;81.00;;;;;;4949573;28;20204;-60
2023/02/27 09:22:35;;;;;;;1.23;0.90;;;7.60;80.60;;;;;;4949200;29;20284;-60
2023/02/27 09:25:02;;;;;;;1.10;1.00;;;7.70;80.30;;;;;;4952082;29;20212;-60
2023/02/27 09:27:30;;;;;;;2.80;0.90;;;7.80;79.20;;;;;;4950463;29;20661;-61
2023/02/27 09:29:58;;;;;;;2.93;0.70;;;8.00;79.70;;;;;;4949208;29;20229;-60
2023/02/27 09:32:26;;;;;;;1.10;0.80;;;8.20;79.00;;;;;;4950016;29;20220;-60
2023/02/27 09:34:53;;;;;;;1.70;0.90;;;8.30;79.10;;;;;;4950932;29;20240;-60
2023/02/27 09:37:23;;;;;;;0.73;0.73;;;8.50;77.50;;;;;;4948779;29;20197;-61
2023/02/27 09:39:51;;;;;;;2.37;1.00;;;8.60;76.30;;;;;;4951230;29;20242;-60
2023/02/27 09:42:20;;;;;;;2.70;1.23;;;8.70;76.00;;;;;;4947439;29;20291;-61
2023/02/27 09:44:51;;;;;;;1.13;1.03;;;9.00;76.90;;;;;;4951434;28;20225;-60
2023/02/27 09:47:23;;;;;;;3.23;1.00;;;9.50;76.10;;;;;;4934692;29;20206;-61
2023/02/27 09:49:58;;;;;;;0.70;0.70;;;9.80;75.70;;;;;;4947630;29;20265;-60
2023/02/27 09:52:26;;;;;;;7.00;1.17;;;9.90;73.20;;;;;;4951290;29;20222;-60
2023/02/27 09:54:54;;;;;;;3.93;1.47;;;9.80;72.20;;;;;;4933694;29;20616;-61
2023/02/27 09:57:31;;;;;;;5.87;1.37;;;9.60;70.60;;;;;;4948425;29;20231;-61
2023/02/27 10:00:06;;;;;;;7.03;1.07;;;9.40;70.60;;;;;;4950966;29;20194;-60
2023/02/27 10:02:46;;;;;;;1.00;0.90;;;9.30;70.70;;;;;;4949387;29;20901;-61
2023/02/27 10:05:23;;;;;;;3.03;0.93;;;9.20;71.90;;;;;;4947747;29;20205;-62
2023/02/27 10:07:56;;;;;;;0.60;0.60;;;9.20;71.10;;;;;;4951202;29;20281;-60
2023/02/27 10:10:31;;;;;;;0.63;0.50;;;9.30;71.00;;;;;;4962916;28;20329;-60
2023/02/27 10:13:38;;;;;;;1.23;0.80;;;9.40;70.90;;;;;;4948152;29;20201;-60
2023/02/27 10:16:11;;;;;;;1.90;1.20;;;9.50;71.20;;;;;;4947261;29;20666;-61
2023/02/27 10:18:48;;;;;;;3.17;1.00;;;9.60;69.70;;;;;;4947111;29;20292;-61
2023/02/27 10:21:20;;;;;;;3.23;0.73;;;9.50;68.60;;;;;;4950262;29;20273;-61
2023/02/27 10:23:53;;;;;;;1.37;0.90;;;9.50;69.10;;;;;;4950327;29;20204;-60
2023/02/27 10:26:25;;;;;;;0.57;0.57;;;9.40;69.80;;;;;;4946089;29;20542;-61
2023/02/27 10:28:52;;;;;;;0.53;0.53;;;9.50;70.20;;;;;;4930021;29;20340;-60
2023/02/27 10:31:24;;;;;;;0.50;0.50;;;9.80;70.60;;;;;;4951081;29;20200;-61
2023/02/27 10:33:52;;;;;;;0.77;0.77;;;9.90;70.30;;;;;;4946219;29;20200;-61
2023/02/27 10:36:21;;;;;;;2.10;0.93;;;9.90;69.80;;;;;;4950749;29;20203;-60
2023/02/27 10:38:52;;;;;;;0.87;0.87;;;9.90;70.10;;;;;;4950011;29;20194;-60
2023/02/27 10:41:21;;;;;;;1.60;0.90;;;9.80;71.10;;;;;;4947658;29;20636;-61
2023/02/27 10:43:54;;;;;;;0.90;0.90;;;9.80;70.50;;;;;;4949265;29;20700;-61
2023/02/27 10:46:26;;;;;;;1.17;1.00;;;9.90;70.60;;;;;;4948842;29;20203;-60
2023/02/27 10:48:54;;;;;;;1.00;0.80;;;10.00;69.30;;;;;;4946935;29;20204;-60
2023/02/27 10:51:27;;;;;;;0.77;0.60;;;10.00;69.00;;;;;;4950379;29;20249;-61
2023/02/27 10:54:22;;;;;;;0.60;0.60;;;10.00;69.20;;;;;;4945470;29;20337;-61
2023/02/27 10:56:52;;;;;;;0.50;0.50;;;10.00;69.20;;;;;;4949794;29;20204;-61
2023/02/27 10:59:22;;;;;;;4.20;0.70;;;10.10;69.20;;;;;;4949884;29;20193;-61
2023/02/27 11:01:53;;;;;;;2.43;0.80;;;10.00;67.80;;;;;;4945933;28;20592;-60
2023/02/27 11:04:27;;;;;;;0.77;0.77;;;10.10;67.70;;;;;;4945117;29;20600;-61
2023/02/27 11:06:54;;;;;;;1.30;0.80;;;10.10;68.20;;;;;;4948180;29;20193;-61
2023/02/27 11:09:24;;;;;;;3.43;1.07;;;10.60;68.60;;;;;;4945371;29;20240;-60
2023/02/27 11:11:52;;;;;;;0.70;0.70;;;10.70;67.30;;;;;;4946734;29;20200;-60
2023/02/27 11:14:29;;;;;;;0.77;0.77;;;10.70;66.70;;;;;;4947317;28;20628;-61
2023/02/27 11:16:59;;;;;;;0.70;0.70;;;10.70;66.70;;;;;;4949108;29;20319;-61
2023/02/27 11:19:32;;;;;;;1.43;0.83;;;10.60;66.80;;;;;;4947991;29;20193;-60
2023/02/27 11:22:05;;;;;;;0.60;0.60;;;10.60;67.00;;;;;;4945585;29;20216;-61
2023/02/27 11:24:32;;;;;;;1.43;0.70;;;10.70;67.10;;;;;;4948102;29;20201;-60
2023/02/27 11:27:02;;;;;;;1.63;0.73;;;10.50;66.30;;;;;;4949575;29;20260;-60
2023/02/27 11:29:29;;;;;;;0.83;0.83;;;10.40;66.10;;;;;;4928746;29;20225;-60
2023/02/27 11:32:01;;;;;;;1.13;0.47;;;10.10;66.60;;;;;;4944909;29;20205;-61
2023/02/27 11:34:31;;;;;;;1.90;0.90;;;10.10;67.00;;;;;;4933731;29;20286;-61
2023/02/27 11:37:01;;;;;;;0.87;0.63;;;10.00;66.90;;;;;;4945600;29;20622;-61
2023/02/27 11:39:36;;;;;;;0.60;0.60;;;9.80;68.10;;;;;;4947413;28;20187;-61
2023/02/27 11:42:14;;;;;;;0.50;0.40;;;9.80;68.50;;;;;;4948078;29;20223;-61
2023/02/27 11:44:50;;;;;;;0.40;0.40;;;9.70;68.50;;;;;;4944008;29;20272;-61
2023/02/27 11:47:26;;;;;;;0.50;0.40;;;9.60;68.70;;;;;;4949109;29;20220;-61
2023/02/27 11:50:36;;;;;;;0.87;0.60;;;9.50;68.70;;;;;;4948143;29;20272;-61
2023/02/27 11:53:20;;;;;;;0.60;0.60;;;9.50;68.60;;;;;;4930635;29;20196;-60
2023/02/27 11:55:48;;;;;;;0.40;0.40;;;9.40;68.60;;;;;;4942967;28;20199;-60
2023/02/27 11:58:20;;;;;;;0.40;0.40;;;9.40;68.70;;;;;;4947810;28;20671;-60
2023/02/27 12:00:51;;;;;;;0.80;0.50;;;9.40;69.60;;;;;;4948933;28;20276;-61
2023/02/27 12:03:25;;;;;;;1.80;0.50;;;9.50;68.80;;;;;;4941603;29;20227;-60
2023/02/27 12:05:55;;;;;;;1.13;0.30;;;9.50;68.30;;;;;;4947307;29;20243;-60
2023/02/27 12:08:36;;;;;;;2.47;0.50;;;9.50;68.40;;;;;;4948697;29;20554;-60
2023/02/27 12:11:07;;;;;;;1.60;0.50;;;9.50;68.30;;;;;;4943926;29;20218;-61
2023/02/27 12:13:38;;;;;;;0.33;0.33;;;9.50;68.00;;;;;;4948468;29;20200;-60
2023/02/27 12:16:12;;;;;;;0.50;0.50;;;9.70;68.10;;;;;;4949244;29;20227;-60
2023/02/27 12:18:46;;;;;;;0.40;0.40;;;9.90;68.00;;;;;;4943592;28;20204;-61
2023/02/27 12:21:17;;;;;;;0.47;0.47;;;10.00;66.60;;;;;;4948964;29;20195;-62
2023/02/27 12:23:50;;;;;;;0.77;0.70;;;10.10;66.00;;;;;;4945597;29;20211;-61
2023/02/27 12:26:24;;;;;;;2.13;0.60;;;10.30;66.00;;;;;;4943798;29;20216;-60
2023/02/27 12:28:56;;;;;;;0.97;0.60;;;10.70;65.80;;;;;;4947134;29;20615;-60
2023/02/27 12:31:42;;;;;;;0.50;0.50;;;10.90;65.20;;;;;;4945857;29;20229;-61
2023/02/27 12:34:22;;;;;;;1.33;0.60;;;10.80;64.30;;;;;;4946732;29;20200;-60
2023/02/27 12:36:51;;;;;;;1.30;0.80;;;10.70;63.90;;;;;;4949602;29;20541;-60
2023/02/27 12:39:20;;;;;;;3.33;0.83;;;10.50;64.00;;;;;;4945118;29;20198;-61
2023/02/27 12:42:16;;;;;;;0.97;0.87;;;10.30;63.40;;;;;;4948871;29;20252;-60
2023/02/27 12:44:58;;;;;;;1.30;0.80;;;10.10;63.10;;;;;;4944056;29;20285;-60
2023/02/27 12:47:32;;;;;;;1.53;0.80;;;10.10;62.90;;;;;;4943549;29;20207;-62
2023/02/27 12:50:05;;;;;;;3.53;0.90;;;10.40;62.90;;;;;;4947962;29;20212;-60
2023/02/27 12:52:44;;;;;;;2.13;0.80;;;10.90;61.70;;;;;;4946003;28;20268;-61
2023/02/27 12:55:16;;;;;;;0.60;0.60;;;11.80;61.40;;;;;;4950689;29;20196;-61
2023/02/27 12:57:56;;;;;;;0.43;0.40;;;12.50;60.50;;;;;;4949392;29;20205;-60
2023/02/27 13:00:28;;;;;;;1.07;0.97;;;12.90;59.60;;;;;;4948514;29;20201;-60
2023/02/27 13:03:05;;;;;;;0.60;0.60;;;13.40;59.20;;;;;;4950063;29;20233;-61
2023/02/27 13:05:44;;;;;;;0.50;0.50;;;14.60;57.80;;;;;;4951724;29;20641;-60
2023/02/27 13:08:30;;;;;;;0.63;0.60;;;15.20;55.60;;;;;;4949279;28;20205;-61
2023/02/27 13:11:01;;;;;;;0.53;0.53;;;15.90;55.20;;;;;;4949846;29;20215;-62
2023/02/27 13:13:37;;;;;;;0.60;0.60;;;16.80;52.50;;;;;;4931379;29;20215;-60
2023/02/27 13:16:07;;;;;;;0.83;0.60;;;17.40;51.90;;;;;;4951466;29;20291;-61
2023/02/27 13:18:42;;;;;;;3.40;0.50;;;17.70;50.10;;;;;;4950195;29;21592;-62
2023/02/27 13:21:19;;;;;;;5.77;0.80;;;18.60;49.50;;;;;;4946538;29;20428;-61
2023/02/27 13:24:13;;;;;;;1.63;0.73;;;19.50;46.00;;;;;;4949143;29;20197;-60
2023/02/27 13:26:43;;;;;;;0.63;0.63;;;19.50;43.50;;;;;;4950111;29;20591;-61